sensor_id;sensor_type;location;lat;lon;timestamp;P1;durP1;ratioP1;P2;durP2;ratioP2
9745;SDS011;4912;50.836;12.958;2024-03-08T00:01:41;37.75;;;18.55;;
9745;SDS011;4912;50.836;12.958;2024-03-08T00:04:13;38.37;;;19.77;;
9745;SDS011;4912;50.836;12.958;2024-03-08T00:06:47;32.77;;;18.37;;
9745;SDS011;4912;50.836;12.958;2024-03-08T00:09:18;34.03;;;19.20;;
9745;SDS011;4912;50.836;12.958;2024-03-08T00:11:49;36.47;;;18.45;;
9745;SDS011;4912;50.836;12.958;2024-03-08T00:14:20;33.90;;;18.30;;
9745;SDS011;4912;50.836;12.958;2024-03-08T00:19:22;32.60;;;18.07;;
9745;SDS011;4912;50.836;12.958;2024-03-08T00:21:56;35.55;;;18.83;;
9745;SDS011;4912;50.836;12.958;2024-03-08T00:24:27;34.03;;;18.53;;
9745;SDS011;4912;50.836;12.958;2024-03-08T00:26:58;36.92;;;19.50;;
9745;SDS011;4912;50.836;12.958;2024-03-08T00:29:29;38.35;;;19.33;;
9745;SDS011;4912;50.836;12.958;2024-03-08T00:32:00;35.97;;;19.80;;
9745;SDS011;4912;50.836;12.958;2024-03-08T00:34:31;35.65;;;20.27;;
9745;SDS011;4912;50.836;12.958;2024-03-08T00:37:05;33.97;;;18.40;;
9745;SDS011;4912;50.836;12.958;2024-03-08T00:39:37;35.63;;;17.90;;
9745;SDS011;4912;50.836;12.958;2024-03-08T00:42:05;34.33;;;18.90;;
9745;SDS011;4912;50.836;12.958;2024-03-08T00:44:36;36.63;;;19.83;;
9745;SDS011;4912;50.836;12.958;2024-03-08T00:47:07;33.20;;;19.40;;
9745;SDS011;4912;50.836;12.958;2024-03-08T00:49:38;34.83;;;19.20;;
9745;SDS011;4912;50.836;12.958;2024-03-08T00:52:13;33.83;;;17.93;;
9745;SDS011;4912;50.836;12.958;2024-03-08T00:54:45;35.73;;;19.37;;
9745;SDS011;4912;50.836;12.958;2024-03-08T00:57:16;40.30;;;20.50;;
9745;SDS011;4912;50.836;12.958;2024-03-08T00:59:51;38.53;;;19.97;;
9745;SDS011;4912;50.836;12.958;2024-03-08T01:02:21;37.60;;;19.43;;
9745;SDS011;4912;50.836;12.958;2024-03-08T01:04:52;37.67;;;20.05;;
9745;SDS011;4912;50.836;12.958;2024-03-08T01:07:26;37.00;;;20.60;;
9745;SDS011;4912;50.836;12.958;2024-03-08T01:09:57;36.00;;;19.50;;
9745;SDS011;4912;50.836;12.958;2024-03-08T01:12:28;37.90;;;19.83;;
9745;SDS011;4912;50.836;12.958;2024-03-08T01:14:59;34.72;;;19.25;;
9745;SDS011;4912;50.836;12.958;2024-03-08T01:17:30;37.22;;;20.05;;
9745;SDS011;4912;50.836;12.958;2024-03-08T01:20:01;39.47;;;20.48;;
9745;SDS011;4912;50.836;12.958;2024-03-08T01:22:35;37.28;;;19.98;;
9745;SDS011;4912;50.836;12.958;2024-03-08T01:25:06;38.37;;;20.27;;
9745;SDS011;4912;50.836;12.958;2024-03-08T01:27:37;44.47;;;20.97;;
9745;SDS011;4912;50.836;12.958;2024-03-08T01:30:08;42.63;;;19.95;;
9745;SDS011;4912;50.836;12.958;2024-03-08T01:32:44;41.60;;;21.43;;
9745;SDS011;4912;50.836;12.958;2024-03-08T01:35:17;34.37;;;20.23;;
9745;SDS011;4912;50.836;12.958;2024-03-08T01:37:52;36.93;;;19.37;;
9745;SDS011;4912;50.836;12.958;2024-03-08T01:40:23;39.90;;;19.20;;
9745;SDS011;4912;50.836;12.958;2024-03-08T01:42:54;36.30;;;20.30;;
9745;SDS011;4912;50.836;12.958;2024-03-08T01:45:25;36.97;;;19.33;;
9745;SDS011;4912;50.836;12.958;2024-03-08T01:50:26;38.77;;;19.07;;
9745;SDS011;4912;50.836;12.958;2024-03-08T01:53:00;39.08;;;20.75;;
9745;SDS011;4912;50.836;12.958;2024-03-08T01:55:31;43.63;;;21.70;;
9745;SDS011;4912;50.836;12.958;2024-03-08T01:58:02;40.30;;;20.87;;
9745;SDS011;4912;50.836;12.958;2024-03-08T02:00:42;41.10;;;20.37;;
9745;SDS011;4912;50.836;12.958;2024-03-08T02:03:16;38.70;;;20.60;;
9745;SDS011;4912;50.836;12.958;2024-03-08T02:05:48;39.03;;;20.83;;
9745;SDS011;4912;50.836;12.958;2024-03-08T02:10:52;42.40;;;21.43;;
9745;SDS011;4912;50.836;12.958;2024-03-08T02:13:23;38.17;;;20.23;;
9745;SDS011;4912;50.836;12.958;2024-03-08T02:15:55;38.43;;;19.90;;
9745;SDS011;4912;50.836;12.958;2024-03-08T02:18:29;39.47;;;20.67;;
9745;SDS011;4912;50.836;12.958;2024-03-08T02:21:04;35.53;;;19.90;;
9745;SDS011;4912;50.836;12.958;2024-03-08T02:23:36;42.03;;;21.10;;
9745;SDS011;4912;50.836;12.958;2024-03-08T02:28:38;41.57;;;20.53;;
9745;SDS011;4912;50.836;12.958;2024-03-08T02:31:10;35.93;;;19.40;;
9745;SDS011;4912;50.836;12.958;2024-03-08T02:33:43;105.30;;;54.67;;
9745;SDS011;4912;50.836;12.958;2024-03-08T02:36:17;62.90;;;33.35;;
9745;SDS011;4912;50.836;12.958;2024-03-08T02:38:48;49.10;;;24.00;;
9745;SDS011;4912;50.836;12.958;2024-03-08T02:41:19;40.80;;;20.75;;
9745;SDS011;4912;50.836;12.958;2024-03-08T02:43:50;41.75;;;21.52;;
9745;SDS011;4912;50.836;12.958;2024-03-08T02:46:22;40.40;;;20.47;;
9745;SDS011;4912;50.836;12.958;2024-03-08T02:48:53;48.25;;;22.42;;
9745;SDS011;4912;50.836;12.958;2024-03-08T02:51:26;42.95;;;22.42;;
9745;SDS011;4912;50.836;12.958;2024-03-08T02:53:58;70.53;;;38.80;;
9745;SDS011;4912;50.836;12.958;2024-03-08T02:56:31;46.70;;;24.63;;
9745;SDS011;4912;50.836;12.958;2024-03-08T02:59:02;42.28;;;21.75;;
9745;SDS011;4912;50.836;12.958;2024-03-08T03:01:33;41.25;;;21.10;;
9745;SDS011;4912;50.836;12.958;2024-03-08T03:04:06;41.73;;;21.07;;
9745;SDS011;4912;50.836;12.958;2024-03-08T03:06:39;42.63;;;20.52;;
9745;SDS011;4912;50.836;12.958;2024-03-08T03:09:10;38.80;;;21.03;;
9745;SDS011;4912;50.836;12.958;2024-03-08T03:11:44;39.77;;;21.47;;
9745;SDS011;4912;50.836;12.958;2024-03-08T03:14:14;40.65;;;20.75;;
9745;SDS011;4912;50.836;12.958;2024-03-08T03:16:46;41.60;;;22.67;;
9745;SDS011;4912;50.836;12.958;2024-03-08T03:19:17;81.22;;;41.78;;
9745;SDS011;4912;50.836;12.958;2024-03-08T03:21:50;72.43;;;38.53;;
9745;SDS011;4912;50.836;12.958;2024-03-08T03:24:21;44.43;;;23.17;;
9745;SDS011;4912;50.836;12.958;2024-03-08T03:29:22;37.67;;;20.53;;
9745;SDS011;4912;50.836;12.958;2024-03-08T03:31:53;40.45;;;19.63;;
9745;SDS011;4912;50.836;12.958;2024-03-08T03:34:24;63.03;;;33.72;;
9745;SDS011;4912;50.836;12.958;2024-03-08T03:36:58;72.50;;;35.83;;
9745;SDS011;4912;50.836;12.958;2024-03-08T03:39:29;45.23;;;21.63;;
9745;SDS011;4912;50.836;12.958;2024-03-08T03:42:01;42.83;;;20.87;;
9745;SDS011;4912;50.836;12.958;2024-03-08T03:44:32;42.17;;;21.23;;
9745;SDS011;4912;50.836;12.958;2024-03-08T03:47:03;34.65;;;18.85;;
9745;SDS011;4912;50.836;12.958;2024-03-08T03:49:34;42.43;;;21.07;;
9745;SDS011;4912;50.836;12.958;2024-03-08T03:54:39;39.33;;;20.83;;
9745;SDS011;4912;50.836;12.958;2024-03-08T03:57:10;41.08;;;20.92;;
9745;SDS011;4912;50.836;12.958;2024-03-08T03:59:41;43.83;;;21.70;;
9745;SDS011;4912;50.836;12.958;2024-03-08T04:02:14;46.90;;;22.13;;
9745;SDS011;4912;50.836;12.958;2024-03-08T04:04:47;42.73;;;21.20;;
9745;SDS011;4912;50.836;12.958;2024-03-08T04:07:20;45.05;;;21.13;;
9745;SDS011;4912;50.836;12.958;2024-03-08T04:09:54;46.27;;;21.67;;
9745;SDS011;4912;50.836;12.958;2024-03-08T04:12:25;42.03;;;21.27;;
9745;SDS011;4912;50.836;12.958;2024-03-08T04:17:26;44.37;;;21.53;;
9745;SDS011;4912;50.836;12.958;2024-03-08T04:19:58;38.87;;;20.83;;
9745;SDS011;4912;50.836;12.958;2024-03-08T04:22:34;52.00;;;22.13;;
9745;SDS011;4912;50.836;12.958;2024-03-08T04:25:06;43.33;;;22.03;;
9745;SDS011;4912;50.836;12.958;2024-03-08T04:27:39;45.47;;;22.10;;
9745;SDS011;4912;50.836;12.958;2024-03-08T04:30:12;43.10;;;23.23;;
9745;SDS011;4912;50.836;12.958;2024-03-08T04:32:43;44.97;;;22.27;;
9745;SDS011;4912;50.836;12.958;2024-03-08T04:35:14;40.70;;;21.92;;
9745;SDS011;4912;50.836;12.958;2024-03-08T04:37:49;40.90;;;21.47;;
9745;SDS011;4912;50.836;12.958;2024-03-08T04:40:20;39.17;;;21.60;;
9745;SDS011;4912;50.836;12.958;2024-03-08T04:42:51;43.53;;;22.17;;
9745;SDS011;4912;50.836;12.958;2024-03-08T04:45:22;45.23;;;21.87;;
9745;SDS011;4912;50.836;12.958;2024-03-08T04:47:53;43.75;;;21.60;;
9745;SDS011;4912;50.836;12.958;2024-03-08T04:52:58;43.88;;;20.85;;
9745;SDS011;4912;50.836;12.958;2024-03-08T04:55:30;42.63;;;21.13;;
9745;SDS011;4912;50.836;12.958;2024-03-08T04:58:01;45.10;;;22.20;;
9745;SDS011;4912;50.836;12.958;2024-03-08T05:00:32;39.70;;;21.53;;
9745;SDS011;4912;50.836;12.958;2024-03-08T05:03:03;42.35;;;20.98;;
9745;SDS011;4912;50.836;12.958;2024-03-08T05:05:34;44.10;;;20.27;;
9745;SDS011;4912;50.836;12.958;2024-03-08T05:08:08;41.78;;;21.20;;
9745;SDS011;4912;50.836;12.958;2024-03-08T05:10:38;44.10;;;21.67;;
9745;SDS011;4912;50.836;12.958;2024-03-08T05:13:09;42.20;;;22.15;;
9745;SDS011;4912;50.836;12.958;2024-03-08T05:15:40;41.05;;;21.33;;
9745;SDS011;4912;50.836;12.958;2024-03-08T05:18:11;43.85;;;21.75;;
9745;SDS011;4912;50.836;12.958;2024-03-08T05:20:42;42.35;;;22.15;;
9745;SDS011;4912;50.836;12.958;2024-03-08T05:23:15;46.25;;;23.00;;
9745;SDS011;4912;50.836;12.958;2024-03-08T05:25:46;43.67;;;21.27;;
9745;SDS011;4912;50.836;12.958;2024-03-08T05:28:18;47.10;;;22.37;;
9745;SDS011;4912;50.836;12.958;2024-03-08T05:33:20;45.20;;;21.73;;
9745;SDS011;4912;50.836;12.958;2024-03-08T05:35:48;44.87;;;21.80;;
9745;SDS011;4912;50.836;12.958;2024-03-08T05:38:24;42.10;;;22.13;;
9745;SDS011;4912;50.836;12.958;2024-03-08T05:40:55;45.90;;;22.23;;
9745;SDS011;4912;50.836;12.958;2024-03-08T05:43:26;39.05;;;21.73;;
9745;SDS011;4912;50.836;12.958;2024-03-08T05:45:57;43.58;;;21.85;;
9745;SDS011;4912;50.836;12.958;2024-03-08T05:48:27;45.47;;;22.88;;
9745;SDS011;4912;50.836;12.958;2024-03-08T05:50:59;41.63;;;22.20;;
9745;SDS011;4912;50.836;12.958;2024-03-08T05:53:34;44.60;;;21.83;;
9745;SDS011;4912;50.836;12.958;2024-03-08T05:56:05;47.37;;;23.83;;
9745;SDS011;4912;50.836;12.958;2024-03-08T05:58:36;44.97;;;22.27;;
9745;SDS011;4912;50.836;12.958;2024-03-08T06:01:07;44.15;;;21.85;;
9745;SDS011;4912;50.836;12.958;2024-03-08T06:03:39;41.73;;;22.10;;
9745;SDS011;4912;50.836;12.958;2024-03-08T06:06:12;44.93;;;23.67;;
9745;SDS011;4912;50.836;12.958;2024-03-08T06:08:47;46.37;;;22.10;;
9745;SDS011;4912;50.836;12.958;2024-03-08T06:11:19;44.10;;;23.37;;
9745;SDS011;4912;50.836;12.958;2024-03-08T06:13:53;42.77;;;22.67;;
9745;SDS011;4912;50.836;12.958;2024-03-08T06:16:27;43.73;;;22.53;;
9745;SDS011;4912;50.836;12.958;2024-03-08T06:18:58;48.25;;;23.15;;
9745;SDS011;4912;50.836;12.958;2024-03-08T06:21:29;43.15;;;21.77;;
9745;SDS011;4912;50.836;12.958;2024-03-08T06:24:03;47.17;;;24.13;;
9745;SDS011;4912;50.836;12.958;2024-03-08T06:26:34;46.03;;;23.50;;
9745;SDS011;4912;50.836;12.958;2024-03-08T06:29:06;47.20;;;23.30;;
9745;SDS011;4912;50.836;12.958;2024-03-08T06:31:41;46.03;;;22.97;;
9745;SDS011;4912;50.836;12.958;2024-03-08T06:34:15;44.37;;;22.80;;
9745;SDS011;4912;50.836;12.958;2024-03-08T06:36:45;45.40;;;23.48;;
9745;SDS011;4912;50.836;12.958;2024-03-08T06:39:19;43.40;;;23.42;;
9745;SDS011;4912;50.836;12.958;2024-03-08T06:41:52;46.00;;;22.77;;
9745;SDS011;4912;50.836;12.958;2024-03-08T06:44:22;43.22;;;23.13;;
9745;SDS011;4912;50.836;12.958;2024-03-08T06:46:54;44.57;;;22.63;;
9745;SDS011;4912;50.836;12.958;2024-03-08T06:49:26;45.30;;;22.43;;
9745;SDS011;4912;50.836;12.958;2024-03-08T06:51:58;49.10;;;23.97;;
9745;SDS011;4912;50.836;12.958;2024-03-08T06:54:32;44.90;;;23.50;;
9745;SDS011;4912;50.836;12.958;2024-03-08T06:57:03;42.57;;;22.83;;
9745;SDS011;4912;50.836;12.958;2024-03-08T06:59:37;42.00;;;23.10;;
9745;SDS011;4912;50.836;12.958;2024-03-08T07:02:08;42.17;;;24.20;;
9745;SDS011;4912;50.836;12.958;2024-03-08T07:04:38;41.85;;;23.67;;
9745;SDS011;4912;50.836;12.958;2024-03-08T07:07:09;43.28;;;23.55;;
9745;SDS011;4912;50.836;12.958;2024-03-08T07:09:44;43.90;;;24.45;;
9745;SDS011;4912;50.836;12.958;2024-03-08T07:12:19;44.00;;;23.30;;
9745;SDS011;4912;50.836;12.958;2024-03-08T07:14:50;45.45;;;24.85;;
9745;SDS011;4912;50.836;12.958;2024-03-08T07:17:21;44.63;;;23.65;;
9745;SDS011;4912;50.836;12.958;2024-03-08T07:19:52;44.97;;;23.63;;
9745;SDS011;4912;50.836;12.958;2024-03-08T07:22:26;40.05;;;23.35;;
9745;SDS011;4912;50.836;12.958;2024-03-08T07:25:01;41.97;;;23.77;;
9745;SDS011;4912;50.836;12.958;2024-03-08T07:27:47;40.72;;;23.27;;
9745;SDS011;4912;50.836;12.958;2024-03-08T07:30:18;39.70;;;23.75;;
9745;SDS011;4912;50.836;12.958;2024-03-08T07:33:04;40.05;;;23.10;;
9745;SDS011;4912;50.836;12.958;2024-03-08T07:35:39;42.05;;;24.90;;
9745;SDS011;4912;50.836;12.958;2024-03-08T07:38:11;38.55;;;24.27;;
9745;SDS011;4912;50.836;12.958;2024-03-08T07:40:46;40.40;;;23.10;;
9745;SDS011;4912;50.836;12.958;2024-03-08T07:43:16;40.90;;;23.85;;
9745;SDS011;4912;50.836;12.958;2024-03-08T07:45:47;37.38;;;22.65;;
9745;SDS011;4912;50.836;12.958;2024-03-08T07:48:19;38.58;;;23.13;;
9745;SDS011;4912;50.836;12.958;2024-03-08T07:50:50;41.72;;;23.33;;
9745;SDS011;4912;50.836;12.958;2024-03-08T07:53:21;39.45;;;24.35;;
9745;SDS011;4912;50.836;12.958;2024-03-08T07:55:56;38.75;;;22.92;;
9745;SDS011;4912;50.836;12.958;2024-03-08T07:58:27;37.28;;;22.90;;
9745;SDS011;4912;50.836;12.958;2024-03-08T08:01:00;41.13;;;22.38;;
9745;SDS011;4912;50.836;12.958;2024-03-08T08:03:31;34.00;;;21.80;;
9745;SDS011;4912;50.836;12.958;2024-03-08T08:06:03;36.67;;;21.55;;
9745;SDS011;4912;50.836;12.958;2024-03-08T08:08:36;36.10;;;22.27;;
9745;SDS011;4912;50.836;12.958;2024-03-08T08:11:12;35.03;;;21.65;;
9745;SDS011;4912;50.836;12.958;2024-03-08T08:13:43;37.35;;;22.67;;
9745;SDS011;4912;50.836;12.958;2024-03-08T08:16:14;34.90;;;21.63;;
9745;SDS011;4912;50.836;12.958;2024-03-08T08:21:15;30.53;;;20.33;;
9745;SDS011;4912;50.836;12.958;2024-03-08T08:23:49;34.67;;;21.38;;
9745;SDS011;4912;50.836;12.958;2024-03-08T08:26:22;36.35;;;21.50;;
9745;SDS011;4912;50.836;12.958;2024-03-08T08:28:53;33.05;;;20.67;;
9745;SDS011;4912;50.836;12.958;2024-03-08T08:31:24;37.05;;;21.92;;
9745;SDS011;4912;50.836;12.958;2024-03-08T08:36:26;34.35;;;21.70;;
9745;SDS011;4912;50.836;12.958;2024-03-08T08:39:00;36.50;;;21.23;;
9745;SDS011;4912;50.836;12.958;2024-03-08T08:41:35;33.63;;;22.10;;
9745;SDS011;4912;50.836;12.958;2024-03-08T08:44:06;32.90;;;20.10;;
9745;SDS011;4912;50.836;12.958;2024-03-08T08:46:42;32.58;;;21.10;;
9745;SDS011;4912;50.836;12.958;2024-03-08T08:49:15;31.15;;;20.88;;
9745;SDS011;4912;50.836;12.958;2024-03-08T08:51:51;32.05;;;21.00;;
9745;SDS011;4912;50.836;12.958;2024-03-08T08:54:26;28.98;;;19.90;;
9745;SDS011;4912;50.836;12.958;2024-03-08T08:57:00;32.33;;;20.00;;
9745;SDS011;4912;50.836;12.958;2024-03-08T08:59:34;28.70;;;19.60;;
9745;SDS011;4912;50.836;12.958;2024-03-08T09:02:06;28.00;;;19.33;;
9745;SDS011;4912;50.836;12.958;2024-03-08T09:04:42;26.75;;;18.65;;
9745;SDS011;4912;50.836;12.958;2024-03-08T09:07:15;29.42;;;18.50;;
9745;SDS011;4912;50.836;12.958;2024-03-08T09:09:46;29.45;;;19.17;;
9745;SDS011;4912;50.836;12.958;2024-03-08T09:12:20;29.52;;;17.60;;
9745;SDS011;4912;50.836;12.958;2024-03-08T09:14:53;26.60;;;17.88;;
9745;SDS011;4912;50.836;12.958;2024-03-08T09:17:25;26.83;;;16.40;;
9745;SDS011;4912;50.836;12.958;2024-03-08T09:22:26;28.25;;;17.38;;
9745;SDS011;4912;50.836;12.958;2024-03-08T09:24:57;29.60;;;18.75;;
9745;SDS011;4912;50.836;12.958;2024-03-08T09:27:31;28.13;;;17.58;;
9745;SDS011;4912;50.836;12.958;2024-03-08T09:30:08;28.10;;;18.00;;
9745;SDS011;4912;50.836;12.958;2024-03-08T09:32:42;25.60;;;18.42;;
9745;SDS011;4912;50.836;12.958;2024-03-08T09:35:13;26.60;;;18.42;;
9745;SDS011;4912;50.836;12.958;2024-03-08T09:37:44;25.15;;;17.15;;
9745;SDS011;4912;50.836;12.958;2024-03-08T09:40:18;26.70;;;18.05;;
9745;SDS011;4912;50.836;12.958;2024-03-08T09:42:54;24.90;;;17.33;;
9745;SDS011;4912;50.836;12.958;2024-03-08T09:45:25;23.88;;;16.42;;
9745;SDS011;4912;50.836;12.958;2024-03-08T09:47:59;23.42;;;16.40;;
9745;SDS011;4912;50.836;12.958;2024-03-08T09:50:32;27.15;;;16.98;;
9745;SDS011;4912;50.836;12.958;2024-03-08T09:53:03;26.77;;;16.08;;
9745;SDS011;4912;50.836;12.958;2024-03-08T09:55:36;35.38;;;21.15;;
9745;SDS011;4912;50.836;12.958;2024-03-08T09:58:15;24.42;;;17.45;;
9745;SDS011;4912;50.836;12.958;2024-03-08T10:01:06;22.58;;;15.63;;
9745;SDS011;4912;50.836;12.958;2024-03-08T10:03:37;26.75;;;16.70;;
9745;SDS011;4912;50.836;12.958;2024-03-08T10:06:08;24.35;;;16.98;;
9745;SDS011;4912;50.836;12.958;2024-03-08T10:08:42;24.98;;;15.38;;
9745;SDS011;4912;50.836;12.958;2024-03-08T10:11:13;23.50;;;15.93;;
9745;SDS011;4912;50.836;12.958;2024-03-08T10:13:47;23.15;;;16.65;;
9745;SDS011;4912;50.836;12.958;2024-03-08T10:16:25;23.85;;;15.80;;
9745;SDS011;4912;50.836;12.958;2024-03-08T10:18:56;21.58;;;14.95;;
9745;SDS011;4912;50.836;12.958;2024-03-08T10:21:27;21.58;;;14.80;;
9745;SDS011;4912;50.836;12.958;2024-03-08T10:23:59;22.25;;;15.40;;
9745;SDS011;4912;50.836;12.958;2024-03-08T10:26:33;23.75;;;15.65;;
9745;SDS011;4912;50.836;12.958;2024-03-08T10:29:06;22.30;;;14.77;;
9745;SDS011;4912;50.836;12.958;2024-03-08T10:31:42;21.25;;;15.00;;
9745;SDS011;4912;50.836;12.958;2024-03-08T10:34:14;21.80;;;14.95;;
9745;SDS011;4912;50.836;12.958;2024-03-08T10:36:47;24.25;;;14.32;;
9745;SDS011;4912;50.836;12.958;2024-03-08T10:39:22;21.25;;;15.20;;
9745;SDS011;4912;50.836;12.958;2024-03-08T10:41:56;22.20;;;14.95;;
9745;SDS011;4912;50.836;12.958;2024-03-08T10:44:43;20.33;;;13.50;;
9745;SDS011;4912;50.836;12.958;2024-03-08T10:47:25;18.73;;;12.93;;
9745;SDS011;4912;50.836;12.958;2024-03-08T10:50:04;18.85;;;14.07;;
9745;SDS011;4912;50.836;12.958;2024-03-08T10:52:48;19.90;;;13.50;;
9745;SDS011;4912;50.836;12.958;2024-03-08T10:55:20;21.25;;;14.20;;
9745;SDS011;4912;50.836;12.958;2024-03-08T10:57:51;20.02;;;13.90;;
9745;SDS011;4912;50.836;12.958;2024-03-08T11:00:25;18.45;;;13.68;;
9745;SDS011;4912;50.836;12.958;2024-03-08T11:02:57;21.10;;;13.93;;
9745;SDS011;4912;50.836;12.958;2024-03-08T11:05:32;18.55;;;12.75;;
9745;SDS011;4912;50.836;12.958;2024-03-08T11:08:17;18.33;;;13.15;;
9745;SDS011;4912;50.836;12.958;2024-03-08T11:10:51;17.42;;;12.65;;
9745;SDS011;4912;50.836;12.958;2024-03-08T11:13:33;18.92;;;12.82;;
9745;SDS011;4912;50.836;12.958;2024-03-08T11:16:09;19.45;;;13.55;;
9745;SDS011;4912;50.836;12.958;2024-03-08T11:18:43;17.10;;;13.27;;
9745;SDS011;4912;50.836;12.958;2024-03-08T11:21:18;20.10;;;12.95;;
9745;SDS011;4912;50.836;12.958;2024-03-08T11:23:58;20.77;;;12.73;;
9745;SDS011;4912;50.836;12.958;2024-03-08T11:26:30;16.27;;;12.60;;
9745;SDS011;4912;50.836;12.958;2024-03-08T11:32:10;16.33;;;12.60;;
9745;SDS011;4912;50.836;12.958;2024-03-08T11:34:42;15.63;;;11.75;;
9745;SDS011;4912;50.836;12.958;2024-03-08T11:37:18;16.00;;;12.82;;
9745;SDS011;4912;50.836;12.958;2024-03-08T11:39:52;15.95;;;11.73;;
9745;SDS011;4912;50.836;12.958;2024-03-08T11:42:26;15.88;;;12.00;;
9745;SDS011;4912;50.836;12.958;2024-03-08T11:44:57;15.32;;;12.13;;
9745;SDS011;4912;50.836;12.958;2024-03-08T11:47:33;15.73;;;11.52;;
9745;SDS011;4912;50.836;12.958;2024-03-08T11:50:07;16.13;;;11.95;;
9745;SDS011;4912;50.836;12.958;2024-03-08T11:52:42;16.23;;;12.07;;
9745;SDS011;4912;50.836;12.958;2024-03-08T11:55:14;15.50;;;11.93;;
9745;SDS011;4912;50.836;12.958;2024-03-08T11:57:47;16.55;;;12.63;;
9745;SDS011;4912;50.836;12.958;2024-03-08T12:00:19;14.18;;;11.57;;
9745;SDS011;4912;50.836;12.958;2024-03-08T12:03:06;14.88;;;11.90;;
9745;SDS011;4912;50.836;12.958;2024-03-08T12:05:39;16.27;;;11.40;;
9745;SDS011;4912;50.836;12.958;2024-03-08T12:08:10;16.73;;;11.85;;
9745;SDS011;4912;50.836;12.958;2024-03-08T12:10:41;17.25;;;12.90;;
9745;SDS011;4912;50.836;12.958;2024-03-08T12:13:12;16.48;;;12.07;;
9745;SDS011;4912;50.836;12.958;2024-03-08T12:15:43;15.82;;;12.15;;
9745;SDS011;4912;50.836;12.958;2024-03-08T12:18:17;17.58;;;12.60;;
9745;SDS011;4912;50.836;12.958;2024-03-08T12:20:50;15.77;;;11.90;;
9745;SDS011;4912;50.836;12.958;2024-03-08T12:23:21;16.58;;;12.10;;
9745;SDS011;4912;50.836;12.958;2024-03-08T12:25:53;15.57;;;12.50;;
9745;SDS011;4912;50.836;12.958;2024-03-08T12:28:24;17.10;;;11.23;;
9745;SDS011;4912;50.836;12.958;2024-03-08T12:30:56;15.13;;;11.02;;
9745;SDS011;4912;50.836;12.958;2024-03-08T12:33:30;13.88;;;11.35;;
9745;SDS011;4912;50.836;12.958;2024-03-08T12:36:02;20.00;;;12.80;;
9745;SDS011;4912;50.836;12.958;2024-03-08T12:38:34;16.08;;;11.75;;
9745;SDS011;4912;50.836;12.958;2024-03-08T12:41:05;18.00;;;13.75;;
9745;SDS011;4912;50.836;12.958;2024-03-08T12:43:39;16.58;;;12.95;;
9745;SDS011;4912;50.836;12.958;2024-03-08T12:46:15;17.25;;;12.45;;
9745;SDS011;4912;50.836;12.958;2024-03-08T12:48:49;14.75;;;12.80;;
9745;SDS011;4912;50.836;12.958;2024-03-08T12:51:21;16.48;;;12.68;;
9745;SDS011;4912;50.836;12.958;2024-03-08T12:53:51;15.75;;;11.82;;
9745;SDS011;4912;50.836;12.958;2024-03-08T12:56:28;15.40;;;12.27;;
9745;SDS011;4912;50.836;12.958;2024-03-08T12:59:05;18.30;;;12.60;;
9745;SDS011;4912;50.836;12.958;2024-03-08T13:01:41;14.70;;;12.25;;
9745;SDS011;4912;50.836;12.958;2024-03-08T13:04:21;16.20;;;12.20;;
9745;SDS011;4912;50.836;12.958;2024-03-08T13:06:52;18.00;;;12.15;;
9745;SDS011;4912;50.836;12.958;2024-03-08T13:09:23;15.73;;;12.52;;
9745;SDS011;4912;50.836;12.958;2024-03-08T13:11:54;21.33;;;13.27;;
9745;SDS011;4912;50.836;12.958;2024-03-08T13:14:28;18.17;;;12.27;;
9745;SDS011;4912;50.836;12.958;2024-03-08T13:16:59;17.15;;;12.57;;
9745;SDS011;4912;50.836;12.958;2024-03-08T13:19:33;14.32;;;11.80;;
9745;SDS011;4912;50.836;12.958;2024-03-08T13:22:05;15.32;;;12.20;;
9745;SDS011;4912;50.836;12.958;2024-03-08T13:24:39;15.88;;;12.90;;
9745;SDS011;4912;50.836;12.958;2024-03-08T13:27:12;15.95;;;12.40;;
9745;SDS011;4912;50.836;12.958;2024-03-08T13:29:46;17.67;;;12.60;;
9745;SDS011;4912;50.836;12.958;2024-03-08T13:32:18;14.00;;;11.65;;
9745;SDS011;4912;50.836;12.958;2024-03-08T13:34:54;17.83;;;12.05;;
9745;SDS011;4912;50.836;12.958;2024-03-08T13:37:34;16.20;;;13.43;;
9745;SDS011;4912;50.836;12.958;2024-03-08T13:40:07;14.68;;;12.80;;
9745;SDS011;4912;50.836;12.958;2024-03-08T13:42:41;13.15;;;11.45;;
9745;SDS011;4912;50.836;12.958;2024-03-08T13:45:12;16.98;;;13.18;;
9745;SDS011;4912;50.836;12.958;2024-03-08T13:47:45;15.15;;;12.38;;
9745;SDS011;4912;50.836;12.958;2024-03-08T13:50:19;14.35;;;12.70;;
9745;SDS011;4912;50.836;12.958;2024-03-08T13:53:03;15.85;;;12.85;;
9745;SDS011;4912;50.836;12.958;2024-03-08T13:55:34;17.35;;;13.63;;
9745;SDS011;4912;50.836;12.958;2024-03-08T13:58:05;16.55;;;12.88;;
9745;SDS011;4912;50.836;12.958;2024-03-08T14:00:36;15.10;;;13.18;;
9745;SDS011;4912;50.836;12.958;2024-03-08T14:03:13;19.20;;;14.35;;
9745;SDS011;4912;50.836;12.958;2024-03-08T14:05:46;19.25;;;14.15;;
9745;SDS011;4912;50.836;12.958;2024-03-08T14:08:17;16.30;;;13.63;;
9745;SDS011;4912;50.836;12.958;2024-03-08T14:10:48;19.25;;;14.70;;
9745;SDS011;4912;50.836;12.958;2024-03-08T14:13:21;17.40;;;14.85;;
9745;SDS011;4912;50.836;12.958;2024-03-08T14:15:52;17.50;;;14.00;;
9745;SDS011;4912;50.836;12.958;2024-03-08T14:18:22;19.02;;;14.63;;
9745;SDS011;4912;50.836;12.958;2024-03-08T14:20:58;19.08;;;15.73;;
9745;SDS011;4912;50.836;12.958;2024-03-08T14:23:29;19.13;;;14.57;;
9745;SDS011;4912;50.836;12.958;2024-03-08T14:26:00;20.42;;;15.30;;
9745;SDS011;4912;50.836;12.958;2024-03-08T14:28:32;17.83;;;14.95;;
9745;SDS011;4912;50.836;12.958;2024-03-08T14:31:03;19.00;;;14.50;;
9745;SDS011;4912;50.836;12.958;2024-03-08T14:33:38;20.80;;;15.55;;
9745;SDS011;4912;50.836;12.958;2024-03-08T14:36:12;19.15;;;14.55;;
9745;SDS011;4912;50.836;12.958;2024-03-08T14:38:43;24.05;;;16.98;;
9745;SDS011;4912;50.836;12.958;2024-03-08T14:41:14;30.48;;;22.85;;
9745;SDS011;4912;50.836;12.958;2024-03-08T14:43:56;20.67;;;15.60;;
9745;SDS011;4912;50.836;12.958;2024-03-08T14:46:28;20.35;;;15.35;;
9745;SDS011;4912;50.836;12.958;2024-03-08T14:48:59;20.58;;;15.82;;
9745;SDS011;4912;50.836;12.958;2024-03-08T14:51:33;35.70;;;26.02;;
9745;SDS011;4912;50.836;12.958;2024-03-08T14:54:04;30.30;;;21.92;;
9745;SDS011;4912;50.836;12.958;2024-03-08T14:56:37;18.55;;;15.48;;
9745;SDS011;4912;50.836;12.958;2024-03-08T14:59:10;18.23;;;14.35;;
9745;SDS011;4912;50.836;12.958;2024-03-08T15:01:41;20.88;;;14.70;;
9745;SDS011;4912;50.836;12.958;2024-03-08T15:04:12;19.73;;;13.98;;
9745;SDS011;4912;50.836;12.958;2024-03-08T15:06:48;19.95;;;14.55;;
9745;SDS011;4912;50.836;12.958;2024-03-08T15:09:19;19.88;;;13.93;;
9745;SDS011;4912;50.836;12.958;2024-03-08T15:11:50;18.27;;;13.10;;
9745;SDS011;4912;50.836;12.958;2024-03-08T15:14:23;18.08;;;14.35;;
9745;SDS011;4912;50.836;12.958;2024-03-08T15:19:25;19.67;;;15.63;;
9745;SDS011;4912;50.836;12.958;2024-03-08T15:22:03;18.52;;;14.48;;
9745;SDS011;4912;50.836;12.958;2024-03-08T15:24:34;38.95;;;29.27;;
9745;SDS011;4912;50.836;12.958;2024-03-08T15:27:04;23.90;;;17.65;;
9745;SDS011;4912;50.836;12.958;2024-03-08T15:29:35;19.58;;;15.85;;
9745;SDS011;4912;50.836;12.958;2024-03-08T15:32:15;19.92;;;15.20;;
9745;SDS011;4912;50.836;12.958;2024-03-08T15:34:49;19.35;;;13.90;;
9745;SDS011;4912;50.836;12.958;2024-03-08T15:37:23;19.45;;;14.73;;
9745;SDS011;4912;50.836;12.958;2024-03-08T15:39:55;17.58;;;14.25;;
9745;SDS011;4912;50.836;12.958;2024-03-08T15:42:26;19.10;;;14.75;;